sensor_id;sensor_type;location;lat;lon;timestamp;pressure;altitude;pressure_sealevel;temperature;humidity
24390;BME280;12510;56.468;-3.004;2023-02-22T00:01:11;99564.63;;;17.85;98.48
24390;BME280;12510;56.468;-3.004;2023-02-22T00:03:48;99569.09;;;16.11;100.00
24390;BME280;12510;56.468;-3.004;2023-02-22T00:06:18;99571.72;;;17.13;100.00
24390;BME280;12510;56.468;-3.004;2023-02-22T00:08:46;99559.69;;;16.15;98.29
24390;BME280;12510;56.468;-3.004;2023-02-22T00:11:15;99545.53;;;17.23;90.90
24390;BME280;12510;56.468;-3.004;2023-02-22T00:13:41;99560.47;;;16.08;100.00
24390;BME280;12510;56.468;-3.004;2023-02-22T00:16:16;99558.94;;;16.34;100.00
24390;BME280;12510;56.468;-3.004;2023-02-22T00:18:43;99561.84;;;15.91;100.00
24390;BME280;12510;56.468;-3.004;2023-02-22T00:21:11;99550.59;;;16.51;99.60
24390;BME280;12510;56.468;-3.004;2023-02-22T00:23:43;99549.56;;;17.66;99.48
24390;BME280;12510;56.468;-3.004;2023-02-22T00:26:17;99555.16;;;16.08;100.00
24390;BME280;12510;56.468;-3.004;2023-02-22T00:28:50;99552.47;;;16.64;100.00
24390;BME280;12510;56.468;-3.004;2023-02-22T00:31:17;99544.16;;;16.05;100.00
24390;BME280;12510;56.468;-3.004;2023-02-22T00:33:43;99546.94;;;15.90;100.00
24390;BME280;12510;56.468;-3.004;2023-02-22T00:36:11;99543.47;;;15.96;100.00
24390;BME280;12510;56.468;-3.004;2023-02-22T00:38:39;99540.00;;;15.54;100.00
24390;BME280;12510;56.468;-3.004;2023-02-22T00:41:06;99543.38;;;15.76;100.00
24390;BME280;12510;56.468;-3.004;2023-02-22T00:43:32;99544.44;;;15.47;100.00
24390;BME280;12510;56.468;-3.004;2023-02-22T00:45:59;99533.25;;;15.86;100.00
24390;BME280;12510;56.468;-3.004;2023-02-22T00:48:26;99544.50;;;15.25;100.00
24390;BME280;12510;56.468;-3.004;2023-02-22T00:50:53;99541.34;;;15.43;100.00
24390;BME280;12510;56.468;-3.004;2023-02-22T00:53:22;99540.22;;;15.59;100.00
24390;BME280;12510;56.468;-3.004;2023-02-22T00:55:49;99548.25;;;15.37;100.00
24390;BME280;12510;56.468;-3.004;2023-02-22T00:58:15;99538.13;;;15.48;100.00
24390;BME280;12510;56.468;-3.004;2023-02-22T01:00:42;99538.66;;;15.71;100.00
24390;BME280;12510;56.468;-3.004;2023-02-22T01:03:10;99529.53;;;15.46;100.00
24390;BME280;12510;56.468;-3.004;2023-02-22T01:05:38;99524.66;;;17.20;99.70
24390;BME280;12510;56.468;-3.004;2023-02-22T01:08:06;99507.59;;;17.54;93.04
24390;BME280;12510;56.468;-3.004;2023-02-22T01:10:34;99510.97;;;17.16;94.96
24390;BME280;12510;56.468;-3.004;2023-02-22T01:13:01;99512.34;;;17.46;93.01
24390;BME280;12510;56.468;-3.004;2023-02-22T01:15:34;99514.88;;;16.94;98.14
24390;BME280;12510;56.468;-3.004;2023-02-22T01:18:02;99506.97;;;17.59;93.19
24390;BME280;12510;56.468;-3.004;2023-02-22T01:20:30;99504.09;;;17.67;92.02
24390;BME280;12510;56.468;-3.004;2023-02-22T01:22:58;99497.59;;;17.50;92.73
24390;BME280;12510;56.468;-3.004;2023-02-22T01:25:28;99497.59;;;17.50;92.01
24390;BME280;12510;56.468;-3.004;2023-02-22T01:27:56;99495.28;;;17.60;91.18
24390;BME280;12510;56.468;-3.004;2023-02-22T01:30:26;99498.13;;;17.65;90.89
24390;BME280;12510;56.468;-3.004;2023-02-22T01:32:53;99513.19;;;15.42;100.00
24390;BME280;12510;56.468;-3.004;2023-02-22T01:35:27;99498.50;;;16.97;98.99
24390;BME280;12510;56.468;-3.004;2023-02-22T01:37:54;99488.81;;;17.88;92.75
24390;BME280;12510;56.468;-3.004;2023-02-22T01:40:28;99494.81;;;16.98;93.96
24390;BME280;12510;56.468;-3.004;2023-02-22T01:42:57;99486.94;;;17.50;92.73
24390;BME280;12510;56.468;-3.004;2023-02-22T01:53:16;99480.88;;;17.81;93.17
24390;BME280;12510;56.468;-3.004;2023-02-22T01:55:45;99478.78;;;17.90;91.51
24390;BME280;12510;56.468;-3.004;2023-02-22T01:58:12;99473.78;;;18.07;89.63
24390;BME280;12510;56.468;-3.004;2023-02-22T02:00:41;99471.97;;;18.90;84.72
24390;BME280;12510;56.468;-3.004;2023-02-22T02:03:15;99471.19;;;18.83;84.12
24390;BME280;12510;56.468;-3.004;2023-02-22T02:05:43;99473.91;;;18.51;85.88
24390;BME280;12510;56.468;-3.004;2023-02-22T02:08:20;99459.75;;;20.36;78.85
24390;BME280;12510;56.468;-3.004;2023-02-22T02:10:49;99459.00;;;20.59;74.17
24390;BME280;12510;56.468;-3.004;2023-02-22T02:13:15;99458.44;;;21.04;71.62
24390;BME280;12510;56.468;-3.004;2023-02-22T02:15:43;99464.44;;;18.30;82.36
24390;BME280;12510;56.468;-3.004;2023-02-22T02:18:12;99475.66;;;18.06;86.03
24390;BME280;12510;56.468;-3.004;2023-02-22T02:20:48;99475.97;;;18.55;84.42
24390;BME280;12510;56.468;-3.004;2023-02-22T02:34:57;99476.41;;;18.14;87.48
24390;BME280;12510;56.468;-3.004;2023-02-22T02:42:57;99490.72;;;15.80;100.00
24390;BME280;12510;56.468;-3.004;2023-02-22T02:45:39;99491.94;;;15.77;100.00
24390;BME280;12510;56.468;-3.004;2023-02-22T02:48:08;99475.31;;;17.37;100.00
24390;BME280;12510;56.468;-3.004;2023-02-22T02:50:41;99488.00;;;15.66;100.00
24390;BME280;12510;56.468;-3.004;2023-02-22T02:53:10;99482.97;;;15.43;100.00
24390;BME280;12510;56.468;-3.004;2023-02-22T02:55:36;99482.81;;;15.16;100.00
24390;BME280;12510;56.468;-3.004;2023-02-22T02:58:05;99483.31;;;15.68;100.00
24390;BME280;12510;56.468;-3.004;2023-02-22T03:00:38;99472.66;;;16.03;100.00
24390;BME280;12510;56.468;-3.004;2023-02-22T03:09:45;99479.97;;;15.53;100.00
24390;BME280;12510;56.468;-3.004;2023-02-22T03:12:22;99463.34;;;17.60;100.00
24390;BME280;12510;56.468;-3.004;2023-02-22T03:17:53;99454.16;;;17.49;100.00
24390;BME280;12510;56.468;-3.004;2023-02-22T03:20:29;99444.31;;;17.63;99.94
24390;BME280;12510;56.468;-3.004;2023-02-22T03:23:12;99446.63;;;17.91;97.16
24390;BME280;12510;56.468;-3.004;2023-02-22T03:25:42;99442.97;;;17.86;96.53
24390;BME280;12510;56.468;-3.004;2023-02-22T03:28:14;99441.88;;;17.55;97.55
24390;BME280;12510;56.468;-3.004;2023-02-22T03:30:49;99445.25;;;17.75;98.04
24390;BME280;12510;56.468;-3.004;2023-02-22T03:33:24;99436.41;;;17.88;95.98
24390;BME280;12510;56.468;-3.004;2023-02-22T03:36:04;99442.06;;;17.53;98.35
24390;BME280;12510;56.468;-3.004;2023-02-22T03:38:33;99435.25;;;17.71;97.71
24390;BME280;12510;56.468;-3.004;2023-02-22T03:41:04;99449.59;;;17.70;97.89
24390;BME280;12510;56.468;-3.004;2023-02-22T03:43:45;99455.84;;;17.43;100.00
24390;BME280;12510;56.468;-3.004;2023-02-22T03:46:16;99447.69;;;17.32;100.00
24390;BME280;12510;56.468;-3.004;2023-02-22T03:51:38;99446.81;;;17.45;100.00
24390;BME280;12510;56.468;-3.004;2023-02-22T03:54:06;99452.00;;;17.26;100.00
24390;BME280;12510;56.468;-3.004;2023-02-22T03:56:44;99445.22;;;17.30;100.00
24390;BME280;12510;56.468;-3.004;2023-02-22T03:59:18;99447.47;;;17.33;100.00
24390;BME280;12510;56.468;-3.004;2023-02-22T04:01:51;99449.84;;;17.62;100.00
24390;BME280;12510;56.468;-3.004;2023-02-22T04:04:17;99440.53;;;17.84;97.85
24390;BME280;12510;56.468;-3.004;2023-02-22T04:06:44;99449.50;;;17.38;100.00
24390;BME280;12510;56.468;-3.004;2023-02-22T04:09:13;99449.34;;;17.26;100.00
24390;BME280;12510;56.468;-3.004;2023-02-22T04:11:39;99443.97;;;17.39;100.00
24390;BME280;12510;56.468;-3.004;2023-02-22T04:14:06;99447.72;;;17.12;100.00
24390;BME280;12510;56.468;-3.004;2023-02-22T04:16:33;99441.19;;;17.14;100.00
24390;BME280;12510;56.468;-3.004;2023-02-22T04:19:00;99443.53;;;17.49;100.00
24390;BME280;12510;56.468;-3.004;2023-02-22T04:21:26;99446.13;;;17.63;98.98
24390;BME280;12510;56.468;-3.004;2023-02-22T04:23:53;99464.53;;;16.58;100.00
24390;BME280;12510;56.468;-3.004;2023-02-22T04:26:19;99451.59;;;17.16;100.00
24390;BME280;12510;56.468;-3.004;2023-02-22T04:28:51;99447.75;;;17.05;100.00
24390;BME280;12510;56.468;-3.004;2023-02-22T04:31:20;99460.03;;;16.79;100.00
24390;BME280;12510;56.468;-3.004;2023-02-22T04:33:47;99444.28;;;16.84;100.00
24390;BME280;12510;56.468;-3.004;2023-02-22T04:36:16;99452.69;;;17.08;98.61
24390;BME280;12510;56.468;-3.004;2023-02-22T04:38:44;99445.31;;;16.97;98.57
24390;BME280;12510;56.468;-3.004;2023-02-22T04:41:12;99455.13;;;16.49;100.00
24390;BME280;12510;56.468;-3.004;2023-02-22T04:43:39;99453.91;;;16.85;98.17
24390;BME280;12510;56.468;-3.004;2023-02-22T04:46:25;99458.81;;;16.95;96.64
24390;BME280;12510;56.468;-3.004;2023-02-22T04:48:53;99449.84;;;16.89;96.62
24390;BME280;12510;56.468;-3.004;2023-02-22T04:51:23;99456.78;;;16.64;98.18
24390;BME280;12510;56.468;-3.004;2023-02-22T04:53:55;99443.88;;;16.81;96.83
24390;BME280;12510;56.468;-3.004;2023-02-22T04:56:22;99451.00;;;15.16;100.00
24390;BME280;12510;56.468;-3.004;2023-02-22T04:58:50;99461.44;;;14.39;100.00
24390;BME280;12510;56.468;-3.004;2023-02-22T05:01:16;99464.03;;;15.46;100.00
24390;BME280;12510;56.468;-3.004;2023-02-22T05:03:46;99470.34;;;13.95;100.00
24390;BME280;12510;56.468;-3.004;2023-02-22T05:06:12;99456.94;;;16.35;100.00
24390;BME280;12510;56.468;-3.004;2023-02-22T05:08:38;99453.75;;;15.78;98.32
24390;BME280;12510;56.468;-3.004;2023-02-22T05:11:05;99450.44;;;15.69;100.00
24390;BME280;12510;56.468;-3.004;2023-02-22T05:13:31;99438.25;;;18.52;87.07
24390;BME280;12510;56.468;-3.004;2023-02-22T05:15:58;99439.72;;;18.48;77.08
24390;BME280;12510;56.468;-3.004;2023-02-22T05:18:24;99456.34;;;16.87;88.76
24390;BME280;12510;56.468;-3.004;2023-02-22T05:20:50;99469.03;;;16.71;90.40
24390;BME280;12510;56.468;-3.004;2023-02-22T05:23:17;99486.19;;;16.42;93.26
24390;BME280;12510;56.468;-3.004;2023-02-22T05:25:43;99494.22;;;14.82;96.81
24390;BME280;12510;56.468;-3.004;2023-02-22T05:28:13;99510.47;;;14.14;100.00
24390;BME280;12510;56.468;-3.004;2023-02-22T05:30:39;99515.31;;;13.58;100.00
24390;BME280;12510;56.468;-3.004;2023-02-22T05:33:07;99531.88;;;13.82;100.00
24390;BME280;12510;56.468;-3.004;2023-02-22T05:35:34;99526.69;;;13.59;100.00
24390;BME280;12510;56.468;-3.004;2023-02-22T05:38:02;99532.72;;;13.38;100.00
24390;BME280;12510;56.468;-3.004;2023-02-22T05:40:30;99545.97;;;13.53;100.00
24390;BME280;12510;56.468;-3.004;2023-02-22T05:42:57;99548.09;;;13.94;100.00
24390;BME280;12510;56.468;-3.004;2023-02-22T05:45:25;99548.47;;;14.06;100.00
24390;BME280;12510;56.468;-3.004;2023-02-22T05:47:53;99547.00;;;14.03;100.00
24390;BME280;12510;56.468;-3.004;2023-02-22T05:50:20;99544.94;;;13.84;100.00
24390;BME280;12510;56.468;-3.004;2023-02-22T05:52:47;99554.06;;;13.96;100.00
24390;BME280;12510;56.468;-3.004;2023-02-22T05:55:17;99562.75;;;13.60;100.00
24390;BME280;12510;56.468;-3.004;2023-02-22T05:57:44;99571.50;;;13.22;100.00
24390;BME280;12510;56.468;-3.004;2023-02-22T06:00:18;99571.38;;;13.69;100.00
24390;BME280;12510;56.468;-3.004;2023-02-22T06:02:45;99569.44;;;14.07;100.00
24390;BME280;12510;56.468;-3.004;2023-02-22T06:05:11;99571.06;;;14.23;100.00
24390;BME280;12510;56.468;-3.004;2023-02-22T06:07:38;99568.31;;;16.23;100.00
24390;BME280;12510;56.468;-3.004;2023-02-22T06:10:05;99557.81;;;16.84;92.38
24390;BME280;12510;56.468;-3.004;2023-02-22T06:12:31;99557.63;;;17.05;89.14
24390;BME280;12510;56.468;-3.004;2023-02-22T06:14:58;99557.38;;;16.87;89.60
24390;BME280;12510;56.468;-3.004;2023-02-22T06:17:24;99552.91;;;16.94;85.88
24390;BME280;12510;56.468;-3.004;2023-02-22T06:19:51;99568.47;;;16.15;91.36
24390;BME280;12510;56.468;-3.004;2023-02-22T06:22:18;99570.66;;;16.67;89.08
24390;BME280;12510;56.468;-3.004;2023-02-22T06:24:45;99571.25;;;16.69;87.10
24390;BME280;12510;56.468;-3.004;2023-02-22T06:27:11;99587.56;;;16.39;87.93
24390;BME280;12510;56.468;-3.004;2023-02-22T06:29:37;99592.75;;;16.81;87.36
24390;BME280;12510;56.468;-3.004;2023-02-22T06:32:04;99591.25;;;16.45;86.28
24390;BME280;12510;56.468;-3.004;2023-02-22T06:34:30;99602.88;;;15.88;90.74
24390;BME280;12510;56.468;-3.004;2023-02-22T06:36:57;99610.44;;;16.33;91.36
24390;BME280;12510;56.468;-3.004;2023-02-22T06:39:23;99621.63;;;15.80;92.28
24390;BME280;12510;56.468;-3.004;2023-02-22T06:41:50;99624.34;;;15.94;90.61
24390;BME280;12510;56.468;-3.004;2023-02-22T06:44:17;99633.41;;;15.78;90.71
24390;BME280;12510;56.468;-3.004;2023-02-22T06:46:48;99632.47;;;15.85;90.67
24390;BME280;12510;56.468;-3.004;2023-02-22T06:49:17;99648.50;;;15.70;90.99
24390;BME280;12510;56.468;-3.004;2023-02-22T06:51:43;99649.00;;;15.31;89.35
24390;BME280;12510;56.468;-3.004;2023-02-22T06:54:11;99660.44;;;15.31;93.56
24390;BME280;12510;56.468;-3.004;2023-02-22T06:56:37;99675.06;;;15.49;92.61
24390;BME280;12510;56.468;-3.004;2023-02-22T06:59:04;99682.78;;;15.44;93.13
24390;BME280;12510;56.468;-3.004;2023-02-22T07:01:30;99682.19;;;15.76;91.31
24390;BME280;12510;56.468;-3.004;2023-02-22T07:03:56;99690.47;;;15.60;91.01
24390;BME280;12510;56.468;-3.004;2023-02-22T07:06:23;99682.66;;;15.30;90.60
24390;BME280;12510;56.468;-3.004;2023-02-22T07:08:49;99696.00;;;15.37;91.20
24390;BME280;12510;56.468;-3.004;2023-02-22T07:11:16;99704.75;;;15.37;90.62
24390;BME280;12510;56.468;-3.004;2023-02-22T07:13:42;99707.81;;;15.34;91.12
24390;BME280;12510;56.468;-3.004;2023-02-22T07:16:09;99703.00;;;15.45;90.81
24390;BME280;12510;56.468;-3.004;2023-02-22T07:18:35;99714.03;;;15.48;90.24
24390;BME280;12510;56.468;-3.004;2023-02-22T07:21:02;99724.03;;;15.46;89.75
24390;BME280;12510;56.468;-3.004;2023-02-22T07:23:28;99721.56;;;15.66;89.56
24390;BME280;12510;56.468;-3.004;2023-02-22T07:25:55;99726.28;;;15.49;86.64
24390;BME280;12510;56.468;-3.004;2023-02-22T07:28:21;99715.50;;;15.51;87.88
24390;BME280;12510;56.468;-3.004;2023-02-22T07:30:48;99733.69;;;15.32;88.18
24390;BME280;12510;56.468;-3.004;2023-02-22T07:33:14;99738.75;;;15.27;90.78
24390;BME280;12510;56.468;-3.004;2023-02-22T07:35:46;99744.09;;;14.61;90.44
24390;BME280;12510;56.468;-3.004;2023-02-22T07:38:14;99748.97;;;15.08;89.67
24390;BME280;12510;56.468;-3.004;2023-02-22T07:40:41;99764.13;;;15.15;89.59
24390;BME280;12510;56.468;-3.004;2023-02-22T07:43:18;99772.22;;;14.91;91.26
24390;BME280;12510;56.468;-3.004;2023-02-22T07:45:46;99770.66;;;14.97;89.14
24390;BME280;12510;56.468;-3.004;2023-02-22T07:48:14;99783.94;;;14.82;91.09
24390;BME280;12510;56.468;-3.004;2023-02-22T07:50:41;99769.78;;;15.76;88.52
24390;BME280;12510;56.468;-3.004;2023-02-22T07:53:14;99774.69;;;15.51;87.38
24390;BME280;12510;56.468;-3.004;2023-02-22T07:55:40;99781.94;;;15.64;87.77
24390;BME280;12510;56.468;-3.004;2023-02-22T07:58:07;99786.19;;;15.58;88.43
24390;BME280;12510;56.468;-3.004;2023-02-22T08:00:37;99779.16;;;15.72;87.87
24390;BME280;12510;56.468;-3.004;2023-02-22T08:03:09;99784.09;;;15.32;86.47
24390;BME280;12510;56.468;-3.004;2023-02-22T08:05:37;99787.78;;;15.31;88.23
24390;BME280;12510;56.468;-3.004;2023-02-22T08:08:04;99792.84;;;15.11;90.34
24390;BME280;12510;56.468;-3.004;2023-02-22T08:10:32;99795.22;;;15.42;89.11
24390;BME280;12510;56.468;-3.004;2023-02-22T08:13:01;99791.63;;;15.29;87.91
24390;BME280;12510;56.468;-3.004;2023-02-22T08:15:30;99798.72;;;15.28;89.68
24390;BME280;12510;56.468;-3.004;2023-02-22T08:17:58;99802.03;;;15.52;89.51
24390;BME280;12510;56.468;-3.004;2023-02-22T08:20:27;99796.34;;;15.76;88.46
24390;BME280;12510;56.468;-3.004;2023-02-22T08:22:54;99801.00;;;15.89;87.28
24390;BME280;12510;56.468;-3.004;2023-02-22T08:25:24;99803.19;;;15.42;88.49
24390;BME280;12510;56.468;-3.004;2023-02-22T08:27:51;99833.69;;;12.95;100.00
24390;BME280;12510;56.468;-3.004;2023-02-22T08:30:24;99843.19;;;12.81;100.00
24390;BME280;12510;56.468;-3.004;2023-02-22T08:32:50;99825.53;;;15.55;95.16
24390;BME280;12510;56.468;-3.004;2023-02-22T08:35:18;99840.59;;;13.04;100.00
24390;BME280;12510;56.468;-3.004;2023-02-22T08:37:51;99831.88;;;15.75;94.01
24390;BME280;12510;56.468;-3.004;2023-02-22T08:40:21;99828.09;;;16.06;89.25
24390;BME280;12510;56.468;-3.004;2023-02-22T08:42:48;99832.03;;;15.89;88.95
24390;BME280;12510;56.468;-3.004;2023-02-22T08:45:15;99827.03;;;16.29;86.11
24390;BME280;12510;56.468;-3.004;2023-02-22T08:47:41;99849.59;;;13.26;100.00
24390;BME280;12510;56.468;-3.004;2023-02-22T08:50:09;99863.63;;;12.87;100.00
24390;BME280;12510;56.468;-3.004;2023-02-22T08:52:40;99860.06;;;13.11;100.00
24390;BME280;12510;56.468;-3.004;2023-02-22T08:55:07;99866.38;;;13.02;100.00
24390;BME280;12510;56.468;-3.004;2023-02-22T08:57:33;99874.50;;;12.92;100.00
24390;BME280;12510;56.468;-3.004;2023-02-22T09:00:00;99878.88;;;13.16;100.00
24390;BME280;12510;56.468;-3.004;2023-02-22T09:02:26;99873.84;;;16.08;100.00
24390;BME280;12510;56.468;-3.004;2023-02-22T09:04:53;99844.75;;;17.27;80.52
24390;BME280;12510;56.468;-3.004;2023-02-22T09:07:19;99867.16;;;16.34;87.43
24390;BME280;12510;56.468;-3.004;2023-02-22T09:09:45;99866.66;;;16.24;84.34
24390;BME280;12510;56.468;-3.004;2023-02-22T09:12:12;99876.16;;;15.90;87.08
24390;BME280;12510;56.468;-3.004;2023-02-22T09:14:38;99878.50;;;16.00;87.78
24390;BME280;12510;56.468;-3.004;2023-02-22T09:17:05;99882.94;;;15.78;87.17
24390;BME280;12510;56.468;-3.004;2023-02-22T09:19:31;99880.84;;;16.66;84.18
24390;BME280;12510;56.468;-3.004;2023-02-22T09:21:58;99891.66;;;16.36;85.69
24390;BME280;12510;56.468;-3.004;2023-02-22T09:24:27;99883.59;;;17.15;82.73
24390;BME280;12510;56.468;-3.004;2023-02-22T09:26:54;99897.81;;;16.65;85.36
24390;BME280;12510;56.468;-3.004;2023-02-22T09:29:22;99893.13;;;17.37;79.56
24390;BME280;12510;56.468;-3.004;2023-02-22T09:31:51;99896.94;;;17.90;79.37
24390;BME280;12510;56.468;-3.004;2023-02-22T09:34:19;99901.69;;;18.01;79.19
24390;BME280;12510;56.468;-3.004;2023-02-22T09:36:48;99904.13;;;17.34;79.07
24390;BME280;12510;56.468;-3.004;2023-02-22T09:39:16;99902.53;;;17.40;81.92
24390;BME280;12510;56.468;-3.004;2023-02-22T09:44:50;99903.13;;;18.71;80.15
24390;BME280;12510;56.468;-3.004;2023-02-22T09:47:39;99922.72;;;17.21;86.82
24390;BME280;12510;56.468;-3.004;2023-02-22T09:50:10;99916.09;;;17.58;81.98
24390;BME280;12510;56.468;-3.004;2023-02-22T09:52:59;99912.97;;;17.35;82.61
24390;BME280;12510;56.468;-3.004;2023-02-22T09:55:49;99942.63;;;14.62;96.74
24390;BME280;12510;56.468;-3.004;2023-02-22T09:58:32;99916.19;;;17.30;83.30
24390;BME280;12510;56.468;-3.004;2023-02-22T10:01:30;99923.66;;;18.17;80.36
24390;BME280;12510;56.468;-3.004;2023-02-22T10:07:17;99908.91;;;18.34;74.39
24390;BME280;12510;56.468;-3.004;2023-02-22T10:09:47;99938.56;;;15.49;87.60
24390;BME280;12510;56.468;-3.004;2023-02-22T10:17:47;99929.50;;;19.71;73.78
24390;BME280;12510;56.468;-3.004;2023-02-22T10:23:21;99946.41;;;18.59;85.25
24390;BME280;12510;56.468;-3.004;2023-02-22T10:25:55;99932.28;;;20.22;70.39
24390;BME280;12510;56.468;-3.004;2023-02-22T10:28:37;99944.03;;;19.30;72.61
24390;BME280;12510;56.468;-3.004;2023-02-22T10:31:18;99950.28;;;19.04;73.72
24390;BME280;12510;56.468;-3.004;2023-02-22T10:33:47;99948.06;;;18.94;74.33
24390;BME280;12510;56.468;-3.004;2023-02-22T10:36:21;99946.47;;;16.66;73.24
24390;BME280;12510;56.468;-3.004;2023-02-22T10:39:20;99982.28;;;15.68;92.65
24390;BME280;12510;56.468;-3.004;2023-02-22T10:41:51;99982.41;;;15.30;87.75
24390;BME280;12510;56.468;-3.004;2023-02-22T10:44:20;99987.69;;;15.90;89.94
24390;BME280;12510;56.468;-3.004;2023-02-22T10:46:47;99993.50;;;15.34;92.17
24390;BME280;12510;56.468;-3.004;2023-02-22T10:49:20;99981.59;;;16.83;85.00
24390;BME280;12510;56.468;-3.004;2023-02-22T10:52:03;99970.75;;;18.09;73.24
24390;BME280;12510;56.468;-3.004;2023-02-22T10:54:37;99970.81;;;17.19;74.99
24390;BME280;12510;56.468;-3.004;2023-02-22T10:57:05;100000.94;;;14.39;93.92
24390;BME280;12510;56.468;-3.004;2023-02-22T10:59:36;100002.53;;;14.71;89.68
24390;BME280;12510;56.468;-3.004;2023-02-22T11:02:31;100011.88;;;14.13;100.00
24390;BME280;12510;56.468;-3.004;2023-02-22T11:05:00;100004.56;;;16.69;99.57
24390;BME280;12510;56.468;-3.004;2023-02-22T11:09:59;100016.22;;;14.05;100.00
24390;BME280;12510;56.468;-3.004;2023-02-22T11:12:37;100001.75;;;16.92;92.71
24390;BME280;12510;56.468;-3.004;2023-02-22T11:17:44;99998.41;;;17.53;86.40
24390;BME280;12510;56.468;-3.004;2023-02-22T11:20:38;99985.72;;;18.11;80.21
24390;BME280;12510;56.468;-3.004;2023-02-22T11:23:05;99992.25;;;17.95;79.99
24390;BME280;12510;56.468;-3.004;2023-02-22T11:25:36;100017.88;;;14.99;93.84
24390;BME280;12510;56.468;-3.004;2023-02-22T11:28:29;100030.91;;;14.86;96.43
24390;BME280;12510;56.468;-3.004;2023-02-22T11:31:09;100032.72;;;14.62;100.00
24390;BME280;12510;56.468;-3.004;2023-02-22T11:33:37;100044.69;;;14.58;100.00
24390;BME280;12510;56.468;-3.004;2023-02-22T11:36:05;100024.56;;;18.87;86.72
24390;BME280;12510;56.468;-3.004;2023-02-22T11:38:38;100006.91;;;18.72;76.10
24390;BME280;12510;56.468;-3.004;2023-02-22T11:41:12;100023.34;;;19.03;78.75
24390;BME280;12510;56.468;-3.004;2023-02-22T11:43:44;100033.69;;;17.62;85.00
24390;BME280;12510;56.468;-3.004;2023-02-22T11:46:13;100056.47;;;15.17;100.00
24390;BME280;12510;56.468;-3.004;2023-02-22T11:48:56;100059.22;;;14.85;100.00
24390;BME280;12510;56.468;-3.004;2023-02-22T12:00:22;100072.03;;;15.35;100.00
24390;BME280;12510;56.468;-3.004;2023-02-22T12:03:09;100048.00;;;19.12;78.13
24390;BME280;12510;56.468;-3.004;2023-02-22T12:11:53;100081.16;;;14.79;97.30
24390;BME280;12510;56.468;-3.004;2023-02-22T12:14:33;100090.72;;;14.88;100.00
24390;BME280;12510;56.468;-3.004;2023-02-22T12:17:17;100084.88;;;15.61;95.19
24390;BME280;12510;56.468;-3.004;2023-02-22T12:20:22;100088.53;;;15.75;97.00
24390;BME280;12510;56.468;-3.004;2023-02-22T12:25:39;100101.25;;;15.50;98.33
24390;BME280;12510;56.468;-3.004;2023-02-22T12:30:44;100100.00;;;15.75;92.16
24390;BME280;12510;56.468;-3.004;2023-02-22T12:33:19;100098.19;;;15.23;96.93
24390;BME280;12510;56.468;-3.004;2023-02-22T12:35:50;100083.47;;;18.79;75.87
24390;BME280;12510;56.468;-3.004;2023-02-22T12:38:41;100082.88;;;17.09;75.89
24390;BME280;12510;56.468;-3.004;2023-02-22T12:41:33;100105.03;;;15.70;90.33
24390;BME280;12510;56.468;-3.004;2023-02-22T12:44:16;100099.56;;;15.87;89.99
24390;BME280;12510;56.468;-3.004;2023-02-22T12:46:46;100106.31;;;16.04;92.48
24390;BME280;12510;56.468;-3.004;2023-02-22T12:57:04;100082.59;;;18.51;72.27
24390;BME280;12510;56.468;-3.004;2023-02-22T12:59:41;100090.00;;;17.94;73.90
24390;BME280;12510;56.468;-3.004;2023-02-22T13:02:27;100109.78;;;17.21;78.48
24390;BME280;12510;56.468;-3.004;2023-02-22T13:04:56;100107.34;;;16.98;82.90
24390;BME280;12510;56.468;-3.004;2023-02-22T13:10:27;100083.75;;;20.03;66.84
24390;BME280;12510;56.468;-3.004;2023-02-22T13:13:23;100097.16;;;19.76;64.44
24390;BME280;12510;56.468;-3.004;2023-02-22T13:16:05;100080.03;;;20.42;60.61
24390;BME280;12510;56.468;-3.004;2023-02-22T13:18:47;100088.22;;;20.48;60.34
24390;BME280;12510;56.468;-3.004;2023-02-22T13:21:25;100075.28;;;20.45;56.80
24390;BME280;12510;56.468;-3.004;2023-02-22T13:24:01;100080.56;;;20.58;57.51
24390;BME280;12510;56.468;-3.004;2023-02-22T13:26:46;100067.06;;;20.78;53.83
24390;BME280;12510;56.468;-3.004;2023-02-22T13:29:23;100093.81;;;20.78;55.70
24390;BME280;12510;56.468;-3.004;2023-02-22T13:35:07;100093.94;;;20.90;52.32
24390;BME280;12510;56.468;-3.004;2023-02-22T13:37:51;100104.59;;;20.97;55.79
24390;BME280;12510;56.468;-3.004;2023-02-22T13:43:10;100104.34;;;20.34;51.96
24390;BME280;12510;56.468;-3.004;2023-02-22T13:46:01;100110.00;;;20.13;51.32
24390;BME280;12510;56.468;-3.004;2023-02-22T13:51:42;100134.84;;;17.05;61.71
24390;BME280;12510;56.468;-3.004;2023-02-22T13:54:36;100158.06;;;17.47;72.81
24390;BME280;12510;56.468;-3.004;2023-02-22T13:57:22;100144.00;;;16.81;63.86
24390;BME280;12510;56.468;-3.004;2023-02-22T14:03:06;100157.78;;;17.13;67.84
24390;BME280;12510;56.468;-3.004;2023-02-22T14:10:54;100165.56;;;17.08;66.32
24390;BME280;12510;56.468;-3.004;2023-02-22T14:13:31;100179.09;;;17.13;71.33
24390;BME280;12510;56.468;-3.004;2023-02-22T14:16:19;100160.69;;;16.75;60.79
24390;BME280;12510;56.468;-3.004;2023-02-22T14:18:48;100168.06;;;17.38;61.79
24390;BME280;12510;56.468;-3.004;2023-02-22T14:21:20;100162.31;;;16.91;60.27
24390;BME280;12510;56.468;-3.004;2023-02-22T14:23:51;100167.63;;;16.91;62.52
24390;BME280;12510;56.468;-3.004;2023-02-22T14:26:32;100157.13;;;17.04;56.63
24390;BME280;12510;56.468;-3.004;2023-02-22T14:36:54;100165.59;;;16.93;58.36
24390;BME280;12510;56.468;-3.004;2023-02-22T14:39:34;100181.94;;;17.12;60.33
24390;BME280;12510;56.468;-3.004;2023-02-22T14:42:09;100162.44;;;18.66;54.17
24390;BME280;12510;56.468;-3.004;2023-02-22T14:44:50;100163.31;;;18.93;51.89
24390;BME280;12510;56.468;-3.004;2023-02-22T14:47:27;100190.19;;;16.95;56.82
24390;BME280;12510;56.468;-3.004;2023-02-22T14:50:12;100193.72;;;17.02;57.15
24390;BME280;12510;56.468;-3.004;2023-02-22T14:52:41;100193.84;;;16.94;55.98
24390;BME280;12510;56.468;-3.004;2023-02-22T14:55:23;100201.28;;;16.99;57.75
24390;BME280;12510;56.468;-3.004;2023-02-22T14:58:03;100215.75;;;16.00;57.75
24390;BME280;12510;56.468;-3.004;2023-02-22T15:00:42;100222.00;;;15.69;60.71